Rishiri, Japan

2:28 PM JST on March 04, 2015 (GMT +0900)
Wakkanai | Change Station
CLOSE
Current Station
Airport
Location: Wakkanai Airport,
Elevation: 36 ft
Nearby Weather Stations

Elev 36 ft 45.40 °N, 141.80 °E | Updated 28 minutes ago

Light Snow Showers
Light Showers Snow
32 °F
Feels Like 20 °F
N
21
Wind Variable Wind from ENE

Today
High -- | Low -- °F
--% Chance of Precip.
Yesterday
High -- | Low -- °F
Precip. -- in
6:09 AM 5:25 PM
Waxing Gibbous, 98% visible
Pressure 29.77 in
Visibility 0.7 miles
Clouds Few 300 ft
Mostly Cloudy 700 ft
Mostly Cloudy 1100 ft
Windchill 20 °F
Dew Point 28 °F
Humidity 87%
Rainfall 0.00 in
Snow Depth Not available.
UV 1 out of 12
Pollen Not available.
Air Quality Not available.
Flu Activity Not available.
METAR RJCW 040500Z 07018KT 1200 R08/P1800N -SHSN FEW003 BKN007 BKN011 M00/M02 Q1008

More Conditions Fewer Conditions

Pressure 29.77 in
Visibility 0.7 miles
Clouds Few 300 ft
Mostly Cloudy 700 ft
Mostly Cloudy 1100 ft
Windchill 20 °F
Dew Point 28 °F
Humidity 87%
Rainfall 0.00 in
Snow Depth Not available.
UV 1 out of 12
Pollen Not available.
Air Quality Not available.
Flu Activity Not available.
METAR RJCW 040500Z 07018KT 1200 R08/P1800N -SHSN FEW003 BKN007 BKN011 M00/M02 Q1008

More Conditions Fewer Conditions

10-Day Weather Forecast

Almanac

Astronomy

Mar. 04, 2015 Rise Set
Actual Time
Civil Twilight
Nautical Twilight
Astronomical Twilight
Moon
Length of Visible Light
Length of Day
Tomorrow will be .
, % of the Moon is Illuminated

Today's Extremes

Country Highs Country Lows

Community

WunderPhotos

Upload Photos

1,802,399 photos uploaded!

WunderBlogs® & News

Nearby

Air Quality

  Air Quality AQ Index Pollutant
Not available.

Snow Depth

Station Depth Elevation

Earthquake Activity

City Distance Mag. Time & Date
Minimum magnitude displayed is 2.5.

Coastal Water Temperatures

Place Temperature

Nearby Weather Stations